Time;durP1;ratioP1;P1;durP2;ratioP2;P2;SDS_P1;SDS_P2;PMS_P1;PMS_P2;Temp;Humidity;BMP_temperature;BMP_pressure;BME280_temperature;BME280_humidity;BME280_pressure;Samples;Min_cycle;Max_cycle;Signal;HPM_P1;HPM_P2
2022/08/14 00:00:16;;;;;;;5.90;5.13;;;20.90;97.70;;;;;;5045535;28;20045;-69
2022/08/14 00:02:43;;;;;;;5.43;4.90;;;20.90;97.70;;;;;;5046366;28;20033;-69
2022/08/14 00:05:14;;;;;;;7.47;5.30;;;20.80;98.00;;;;;;5047071;28;20393;-69
2022/08/14 00:07:40;;;;;;;5.53;4.95;;;20.80;97.80;;;;;;5043582;28;20033;-69
2022/08/14 00:10:09;;;;;;;5.63;5.13;;;20.80;97.90;;;;;;5039489;28;20068;-69
2022/08/14 00:12:37;;;;;;;6.45;4.75;;;20.80;98.10;;;;;;5043624;28;20113;-69
2022/08/14 00:15:28;;;;;;;7.18;5.28;;;20.70;98.50;;;;;;5042373;28;20045;-69
2022/08/14 00:17:53;;;;;;;5.65;5.10;;;20.70;98.60;;;;;;5044967;28;20048;-69
2022/08/14 00:20:23;;;;;;;6.25;5.65;;;20.70;98.90;;;;;;5063306;28;20040;-69
2022/08/14 00:22:49;;;;;;;5.57;5.07;;;20.70;98.80;;;;;;5041891;28;20040;-69
2022/08/14 00:25:15;;;;;;;6.72;5.78;;;20.70;98.80;;;;;;5048062;28;20423;-69
2022/08/14 00:27:40;;;;;;;5.65;5.15;;;20.70;98.90;;;;;;5056241;28;20530;-69
2022/08/14 00:30:09;;;;;;;7.20;5.68;;;20.70;98.90;;;;;;5042077;28;20392;-68
2022/08/14 00:32:35;;;;;;;6.40;5.60;;;20.60;99.10;;;;;;5038253;28;20032;-69
2022/08/14 00:35:05;;;;;;;6.07;5.43;;;20.60;99.50;;;;;;5044573;28;20041;-69
2022/08/14 00:37:32;;;;;;;6.78;5.60;;;20.60;99.50;;;;;;5047065;28;20119;-69
2022/08/14 00:39:58;;;;;;;5.93;5.30;;;20.60;99.60;;;;;;5047090;28;20033;-69
2022/08/14 00:42:25;;;;;;;9.75;5.97;;;20.60;99.90;;;;;;5045662;28;20094;-69
2022/08/14 00:44:51;;;;;;;6.25;5.65;;;20.60;99.90;;;;;;5048221;28;20041;-69
2022/08/14 00:47:17;;;;;;;10.30;6.22;;;20.50;99.90;;;;;;5043741;28;20446;-69
2022/08/14 00:49:44;;;;;;;6.60;5.40;;;20.50;99.90;;;;;;5028578;28;20205;-69
2022/08/14 00:52:12;;;;;;;6.57;5.88;;;20.50;99.90;;;;;;5038948;28;20044;-70
2022/08/14 00:54:39;;;;;;;5.95;5.35;;;20.40;99.90;;;;;;5039859;28;20524;-68
2022/08/14 00:57:05;;;;;;;6.05;5.47;;;20.40;99.90;;;;;;5037129;28;20123;-69
2022/08/14 00:59:30;;;;;;;9.40;6.10;;;20.40;99.90;;;;;;5039213;28;20040;-70
2022/08/14 01:02:00;;;;;;;7.03;5.72;;;20.30;99.90;;;;;;5061215;28;20044;-71
2022/08/14 01:04:28;;;;;;;7.25;6.05;;;20.30;99.90;;;;;;5054265;28;20059;-71
2022/08/14 01:06:54;;;;;;;7.00;6.30;;;20.30;99.90;;;;;;5055016;28;20041;-71
2022/08/14 01:09:21;;;;;;;6.75;6.15;;;20.20;99.90;;;;;;5039016;28;20162;-71
2022/08/14 01:11:52;;;;;;;6.25;5.65;;;20.20;99.90;;;;;;5061660;28;20060;-73
2022/08/14 01:14:18;;;;;;;6.25;5.65;;;20.20;99.90;;;;;;5073720;28;20044;-72
2022/08/14 01:16:45;;;;;;;6.93;6.00;;;20.30;99.90;;;;;;5063230;28;20047;-71
2022/08/14 01:21:56;;;;;;;7.03;5.75;;;20.30;99.90;;;;;;5059744;28;20126;-71
2022/08/14 01:24:22;;;;;;;6.80;6.13;;;20.40;99.90;;;;;;5069874;28;20444;-71
2022/08/14 01:26:47;;;;;;;8.52;6.55;;;20.40;99.90;;;;;;5076926;28;20100;-71
2022/08/14 01:29:14;;;;;;;7.10;6.50;;;20.40;99.90;;;;;;5058382;28;20208;-71
2022/08/14 01:34:08;;;;;;;8.23;6.05;;;20.40;99.90;;;;;;5054190;28;20091;-71
2022/08/14 01:36:38;;;;;;;6.85;5.72;;;20.40;99.90;;;;;;5060578;28;20063;-70
2022/08/14 01:39:13;;;;;;;9.20;6.50;;;20.30;99.90;;;;;;5061889;28;20099;-70
2022/08/14 01:41:39;;;;;;;6.45;5.63;;;20.30;99.90;;;;;;5060746;28;20021;-69
2022/08/14 01:44:11;;;;;;;7.03;6.38;;;20.30;99.90;;;;;;5051464;28;20076;-69
2022/08/14 01:46:39;;;;;;;9.88;6.28;;;20.30;99.90;;;;;;5053503;28;20040;-71
2022/08/14 01:49:08;;;;;;;8.45;6.15;;;20.30;99.90;;;;;;5072002;28;20052;-71
2022/08/14 01:51:35;;;;;;;7.43;6.68;;;20.20;99.90;;;;;;5054808;28;20079;-71
2022/08/14 01:54:08;;;;;;;6.47;5.75;;;20.20;99.90;;;;;;5048760;28;20154;-69
2022/08/14 01:56:36;;;;;;;6.80;6.10;;;20.20;99.90;;;;;;5043380;28;20044;-69
2022/08/14 01:59:05;;;;;;;7.82;6.20;;;20.10;99.90;;;;;;5043510;28;20434;-70
2022/08/14 02:01:32;;;;;;;8.40;6.18;;;20.10;99.90;;;;;;5064111;28;20090;-70
2022/08/14 02:03:57;;;;;;;6.90;6.20;;;20.10;99.90;;;;;;5061091;28;20429;-69
2022/08/14 02:06:25;;;;;;;6.55;5.95;;;20.10;99.90;;;;;;5039202;28;20039;-69
2022/08/14 02:08:52;;;;;;;6.72;6.13;;;20.10;99.90;;;;;;5042331;28;20041;-69
2022/08/14 02:11:21;;;;;;;6.68;5.97;;;20.10;99.90;;;;;;5038562;28;20045;-69
2022/08/14 02:13:58;;;;;;;8.68;7.00;;;20.00;99.90;;;;;;5049307;28;20040;-69
2022/08/14 02:16:28;;;;;;;7.20;6.47;;;20.10;99.90;;;;;;5025944;28;20041;-69
2022/08/14 02:19:00;;;;;;;6.85;6.25;;;20.00;99.90;;;;;;5037315;28;20056;-69
2022/08/14 02:21:30;;;;;;;9.57;6.35;;;20.00;99.90;;;;;;5023332;28;20049;-70
2022/08/14 02:23:57;;;;;;;8.35;6.78;;;20.00;99.90;;;;;;5062199;28;20048;-70
2022/08/14 02:26:26;;;;;;;7.05;6.43;;;19.90;99.90;;;;;;5055437;28;20037;-69
2022/08/14 02:28:58;;;;;;;8.02;6.78;;;19.90;99.90;;;;;;5057557;28;20059;-69
2022/08/14 02:31:28;;;;;;;7.60;6.85;;;19.80;99.90;;;;;;5037895;28;20670;-69
2022/08/14 02:33:55;;;;;;;7.72;6.95;;;19.80;99.90;;;;;;5037197;28;20045;-68
2022/08/14 02:36:21;;;;;;;7.28;6.57;;;19.70;99.90;;;;;;5062565;28;20044;-68
2022/08/14 02:38:48;;;;;;;7.60;6.90;;;19.70;99.90;;;;;;5044432;28;20044;-68
2022/08/14 02:41:14;;;;;;;7.30;6.70;;;19.60;99.90;;;;;;5060667;28;20124;-68
2022/08/14 02:43:41;;;;;;;8.45;6.72;;;19.60;99.90;;;;;;5045428;28;20120;-68
2022/08/14 02:46:09;;;;;;;7.28;6.68;;;19.60;99.90;;;;;;5043943;28;20455;-69
2022/08/14 02:48:42;;;;;;;8.02;7.20;;;19.60;99.90;;;;;;5022340;28;20055;-68
2022/08/14 02:51:13;;;;;;;11.27;7.20;;;19.60;99.90;;;;;;5047646;28;20040;-68
2022/08/14 02:53:43;;;;;;;7.90;7.30;;;19.50;99.90;;;;;;5045933;28;20047;-69
2022/08/14 02:56:12;;;;;;;7.75;7.05;;;19.50;99.90;;;;;;5043203;28;20148;-69
2022/08/14 02:58:42;;;;;;;7.95;7.25;;;19.50;99.90;;;;;;5040100;28;20083;-68
2022/08/14 03:01:08;;;;;;;8.75;7.63;;;19.50;99.90;;;;;;5039408;28;20059;-68
2022/08/14 03:03:35;;;;;;;8.88;7.97;;;19.50;99.90;;;;;;5046397;28;20120;-69
2022/08/14 03:06:03;;;;;;;8.30;7.55;;;19.50;99.90;;;;;;5060260;28;20039;-69
2022/08/14 03:08:32;;;;;;;7.95;7.25;;;19.50;99.90;;;;;;5042893;28;20045;-68
2022/08/14 03:11:05;;;;;;;8.25;7.55;;;19.40;99.90;;;;;;5040029;28;20400;-69
2022/08/14 03:13:34;;;;;;;9.50;6.90;;;19.40;99.90;;;;;;5042315;28;20111;-69
2022/08/14 03:16:01;;;;;;;10.00;7.78;;;19.40;99.90;;;;;;5041079;28;20051;-69
2022/08/14 03:18:28;;;;;;;8.50;7.70;;;19.40;99.90;;;;;;5038936;28;20110;-68
2022/08/14 03:20:54;;;;;;;9.23;8.30;;;19.30;99.90;;;;;;5042001;28;20170;-69
2022/08/14 03:23:19;;;;;;;9.40;8.50;;;19.30;99.90;;;;;;5034851;28;20129;-69
2022/08/14 03:25:46;;;;;;;8.73;7.85;;;19.30;99.90;;;;;;5040650;28;20487;-69
2022/08/14 03:28:13;;;;;;;9.45;7.90;;;19.30;99.90;;;;;;5031311;28;20047;-68
2022/08/14 03:30:39;;;;;;;8.48;7.68;;;19.30;99.90;;;;;;5061318;28;20507;-67
2022/08/14 03:33:06;;;;;;;8.70;7.93;;;19.30;99.90;;;;;;5041562;28;20729;-68
2022/08/14 03:35:33;;;;;;;9.40;8.32;;;19.30;99.90;;;;;;5043427;28;20076;-69
2022/08/14 03:38:10;;;;;;;9.27;8.38;;;19.30;99.90;;;;;;5039595;28;20546;-69
2022/08/14 03:40:38;;;;;;;8.50;7.53;;;19.30;99.90;;;;;;5039065;28;20043;-69
2022/08/14 03:43:08;;;;;;;9.25;8.38;;;19.30;99.90;;;;;;5034803;28;20088;-69
2022/08/14 03:45:35;;;;;;;12.00;8.30;;;19.20;99.90;;;;;;5043632;28;20037;-68
2022/08/14 03:48:18;;;;;;;9.40;8.40;;;19.20;99.90;;;;;;5039362;28;20103;-69
2022/08/14 03:50:52;;;;;;;9.15;8.27;;;19.20;99.90;;;;;;5037183;28;20395;-69
2022/08/14 03:53:19;;;;;;;8.63;7.93;;;19.20;99.90;;;;;;5040792;28;20044;-69
2022/08/14 03:55:46;;;;;;;9.73;8.80;;;19.20;99.90;;;;;;5058198;28;20493;-69
2022/08/14 03:58:12;;;;;;;8.85;7.95;;;19.20;99.90;;;;;;5059276;28;20167;-69
2022/08/14 04:00:39;;;;;;;9.98;8.98;;;19.20;99.90;;;;;;5038056;28;20048;-69
2022/08/14 04:03:10;;;;;;;10.10;8.27;;;19.20;99.90;;;;;;5039482;28;20088;-69
2022/08/14 04:05:41;;;;;;;10.23;9.05;;;19.10;99.90;;;;;;5041817;28;20041;-69
2022/08/14 04:08:08;;;;;;;9.43;8.52;;;19.10;99.90;;;;;;5041999;28;20041;-69
2022/08/14 04:10:35;;;;;;;11.07;8.45;;;19.10;99.90;;;;;;5041789;28;20159;-69
2022/08/14 04:13:01;;;;;;;9.38;8.40;;;19.10;99.90;;;;;;5063082;28;20039;-69
2022/08/14 04:15:27;;;;;;;10.07;9.07;;;19.10;99.90;;;;;;5042293;28;20103;-69
2022/08/14 04:17:54;;;;;;;9.27;8.43;;;19.00;99.90;;;;;;5038839;28;20044;-69
2022/08/14 04:20:20;;;;;;;10.50;9.50;;;19.00;99.90;;;;;;5039552;28;20403;-69
2022/08/14 04:22:47;;;;;;;9.90;8.73;;;19.00;99.90;;;;;;5043027;28;20079;-69
2022/08/14 04:25:13;;;;;;;9.82;8.82;;;19.00;99.90;;;;;;5046728;28;20056;-69
2022/08/14 04:27:39;;;;;;;9.77;8.95;;;18.90;99.90;;;;;;5039159;28;20045;-69
2022/08/14 04:30:06;;;;;;;11.00;9.05;;;18.90;99.90;;;;;;5042908;28;20436;-69
2022/08/14 04:32:32;;;;;;;10.30;9.43;;;18.90;99.90;;;;;;5045493;28;20094;-69
2022/08/14 04:34:59;;;;;;;10.73;9.70;;;18.90;99.90;;;;;;5050136;28;20135;-69
2022/08/14 04:45:40;;;;;;;9.65;8.85;;;18.90;99.90;;;;;;5065534;28;20056;-69
2022/08/14 04:48:13;;;;;;;10.43;9.43;;;18.90;99.90;;;;;;5040731;28;20427;-69
2022/08/14 04:50:39;;;;;;;9.82;8.88;;;18.90;99.90;;;;;;5045891;28;20040;-69
2022/08/14 04:53:04;;;;;;;10.07;9.07;;;18.90;99.90;;;;;;5041336;28;20107;-69
2022/08/14 04:55:31;;;;;;;10.15;9.30;;;18.90;99.90;;;;;;5041388;28;20056;-69
2022/08/14 04:57:58;;;;;;;10.65;8.80;;;18.90;99.90;;;;;;5038238;28;20124;-69
2022/08/14 05:00:24;;;;;;;9.68;8.88;;;18.90;99.90;;;;;;5060340;28;20066;-70
2022/08/14 05:02:49;;;;;;;10.68;9.77;;;19.00;99.90;;;;;;5048069;28;20040;-68
2022/08/14 05:05:15;;;;;;;9.52;8.73;;;19.00;99.90;;;;;;5045726;28;20091;-69
2022/08/14 05:07:41;;;;;;;10.05;9.15;;;19.00;99.90;;;;;;5044891;28;20028;-69
2022/08/14 05:10:07;;;;;;;10.77;9.27;;;19.20;99.90;;;;;;5041438;28;20128;-68
2022/08/14 05:12:33;;;;;;;10.55;9.32;;;19.20;99.90;;;;;;5046500;28;20119;-69
2022/08/14 05:14:59;;;;;;;9.35;8.48;;;19.30;99.90;;;;;;5062274;28;20037;-69
2022/08/14 05:17:25;;;;;;;10.35;9.35;;;19.40;99.90;;;;;;5048244;28;20052;-70
2022/08/14 05:19:51;;;;;;;10.63;9.63;;;19.40;99.90;;;;;;5040165;28;20045;-70
2022/08/14 05:22:18;;;;;;;9.95;8.95;;;19.50;99.90;;;;;;5047719;28;20944;-69
2022/08/14 05:24:46;;;;;;;10.80;9.68;;;19.60;99.90;;;;;;5047962;28;20036;-69
2022/08/14 05:27:12;;;;;;;11.18;8.85;;;19.60;99.90;;;;;;5047064;28;20154;-69
2022/08/14 05:29:39;;;;;;;10.00;9.00;;;19.70;99.90;;;;;;5027471;28;20128;-70
2022/08/14 05:32:06;;;;;;;10.55;8.68;;;19.80;99.90;;;;;;5045370;28;20055;-69
2022/08/14 05:34:32;;;;;;;9.65;8.77;;;19.80;99.90;;;;;;5046198;28;20033;-68
2022/08/14 05:37:00;;;;;;;9.98;9.13;;;19.90;99.90;;;;;;5046012;28;20045;-69
2022/08/14 05:39:26;;;;;;;10.70;8.80;;;20.00;99.90;;;;;;5059761;28;20067;-69
2022/08/14 05:41:52;;;;;;;9.25;8.45;;;20.10;99.90;;;;;;5042877;28;20151;-69
2022/08/14 05:44:18;;;;;;;11.07;9.13;;;20.20;99.90;;;;;;5040675;28;20032;-69
2022/08/14 05:46:44;;;;;;;10.65;8.90;;;20.30;99.90;;;;;;5052043;28;20179;-68
2022/08/14 05:49:09;;;;;;;9.55;8.68;;;20.70;99.90;;;;;;5042284;28;20068;-68
2022/08/14 05:51:35;;;;;;;9.57;8.65;;;21.00;99.90;;;;;;5043386;28;20045;-69
2022/08/14 05:54:01;;;;;;;10.02;9.13;;;21.00;99.90;;;;;;5042225;28;20153;-69
2022/08/14 05:56:27;;;;;;;9.35;8.40;;;21.00;99.90;;;;;;5042315;28;20049;-69
2022/08/14 05:58:53;;;;;;;11.48;8.80;;;21.00;99.90;;;;;;5041468;28;20137;-69
2022/08/14 06:01:19;;;;;;;9.73;8.82;;;21.00;99.90;;;;;;5059660;28;20033;-68
2022/08/14 06:03:45;;;;;;;9.48;8.55;;;21.10;99.90;;;;;;5031441;28;20902;-69
2022/08/14 06:06:10;;;;;;;8.98;8.18;;;21.20;99.90;;;;;;5046171;28;20060;-68
2022/08/14 06:08:36;;;;;;;8.90;8.05;;;21.30;99.90;;;;;;5044643;28;20044;-69
2022/08/14 06:11:06;;;;;;;10.27;9.15;;;21.30;99.90;;;;;;5044422;28;20468;-68
2022/08/14 06:13:34;;;;;;;8.82;8.02;;;21.40;99.90;;;;;;5037914;28;20067;-68
2022/08/14 06:16:00;;;;;;;9.00;8.13;;;21.50;99.90;;;;;;5062898;28;20055;-68
2022/08/14 06:18:25;;;;;;;8.63;7.82;;;21.60;99.90;;;;;;5029360;28;20496;-69
2022/08/14 06:20:53;;;;;;;8.98;8.10;;;21.70;99.90;;;;;;5041132;28;20053;-68
2022/08/14 06:23:18;;;;;;;8.48;7.65;;;21.80;99.90;;;;;;5044027;28;20642;-68
2022/08/14 06:25:44;;;;;;;8.95;7.63;;;21.90;99.90;;;;;;5041144;28;20067;-69
2022/08/14 06:28:22;;;;;;;7.95;7.15;;;22.10;99.90;;;;;;5041801;28;20052;-68
2022/08/14 06:30:49;;;;;;;7.68;6.93;;;22.20;99.90;;;;;;5042345;28;20093;-69
2022/08/14 06:33:16;;;;;;;8.32;7.53;;;22.30;99.90;;;;;;5030150;28;20177;-69
2022/08/14 06:35:42;;;;;;;8.52;7.57;;;22.40;99.90;;;;;;5041730;28;20052;-69
2022/08/14 06:38:14;;;;;;;8.88;7.68;;;22.50;99.90;;;;;;5044216;28;20040;-68
2022/08/14 06:40:40;;;;;;;8.18;7.43;;;22.70;99.90;;;;;;5042362;28;20052;-69
2022/08/14 06:43:08;;;;;;;8.07;7.30;;;22.70;99.90;;;;;;5058199;28;20041;-68
2022/08/14 06:45:36;;;;;;;8.20;7.45;;;22.70;99.90;;;;;;5041796;28;20128;-68
2022/08/14 06:48:03;;;;;;;9.45;7.75;;;22.70;99.90;;;;;;5043960;28;20041;-68
2022/08/14 06:50:30;;;;;;;10.98;7.60;;;22.80;99.90;;;;;;5038644;28;20045;-68
2022/08/14 06:52:59;;;;;;;8.07;7.38;;;22.90;99.90;;;;;;5043266;28;20041;-69
2022/08/14 06:55:26;;;;;;;7.82;7.03;;;23.00;99.90;;;;;;5037886;28;20055;-68
2022/08/14 06:57:51;;;;;;;9.07;7.63;;;23.10;99.90;;;;;;5041991;28;20132;-67
2022/08/14 07:00:21;;;;;;;9.30;8.38;;;23.20;99.90;;;;;;5040889;28;20120;-67
2022/08/14 07:05:45;;;;;;;8.55;7.18;;;23.50;99.90;;;;;;5048153;28;20059;-67
2022/08/14 07:08:12;;;;;;;9.07;6.22;;;23.60;99.90;;;;;;5041064;28;20659;-68
2022/08/14 07:10:38;;;;;;;6.20;5.70;;;23.80;99.90;;;;;;5040321;28;20428;-67
2022/08/14 07:13:04;;;;;;;8.05;6.10;;;24.00;99.80;;;;;;5041065;28;20060;-68
2022/08/14 07:15:33;;;;;;;6.50;5.80;;;24.10;99.50;;;;;;5061263;28;20407;-68
2022/08/14 07:18:00;;;;;;;7.53;6.18;;;24.20;99.00;;;;;;5041767;28;20044;-68
2022/08/14 07:20:27;;;;;;;7.15;5.85;;;24.30;99.20;;;;;;5040456;28;20194;-68
2022/08/14 07:22:57;;;;;;;7.63;5.18;;;24.50;98.40;;;;;;5057029;28;20434;-69
2022/08/14 07:25:24;;;;;;;6.82;5.50;;;24.60;98.80;;;;;;5059151;28;20032;-69
2022/08/14 07:27:49;;;;;;;6.72;5.18;;;24.90;97.70;;;;;;5059698;28;20456;-69
2022/08/14 07:30:16;;;;;;;5.75;5.25;;;25.00;97.80;;;;;;5041758;28;20123;-68
2022/08/14 07:32:41;;;;;;;6.93;5.10;;;25.20;97.40;;;;;;5055186;28;20124;-69
2022/08/14 07:35:07;;;;;;;6.03;5.43;;;25.50;95.90;;;;;;5064654;28;20135;-68
2022/08/14 07:37:33;;;;;;;5.72;5.13;;;25.60;95.00;;;;;;5054327;28;20052;-68
2022/08/14 07:40:03;;;;;;;6.30;5.40;;;25.80;94.60;;;;;;5061495;28;20039;-69
2022/08/14 07:42:31;;;;;;;6.75;5.80;;;25.80;94.40;;;;;;5060377;28;20041;-67
2022/08/14 07:44:57;;;;;;;6.70;4.90;;;26.00;94.80;;;;;;5055309;28;20174;-67
2022/08/14 07:47:23;;;;;;;5.25;4.75;;;26.20;94.50;;;;;;5034268;28;20056;-69
2022/08/14 07:50:03;;;;;;;8.13;5.15;;;26.30;93.00;;;;;;5038616;28;20041;-68
2022/08/14 07:52:29;;;;;;;5.78;5.10;;;26.40;92.20;;;;;;5024349;28;20546;-68
2022/08/14 07:54:55;;;;;;;6.10;5.57;;;26.70;92.00;;;;;;5063679;28;20041;-69
2022/08/14 07:57:21;;;;;;;5.70;5.13;;;27.00;90.80;;;;;;5044591;28;20119;-68
2022/08/14 07:59:47;;;;;;;6.97;4.80;;;27.20;89.70;;;;;;5058540;28;20063;-68
2022/08/14 08:02:17;;;;;;;7.47;4.90;;;27.50;89.20;;;;;;5060321;28;20075;-68
2022/08/14 08:04:55;;;;;;;5.38;4.78;;;27.90;87.00;;;;;;5045084;28;20411;-68
2022/08/14 08:07:22;;;;;;;5.60;4.85;;;28.30;84.80;;;;;;5063216;28;20056;-66
2022/08/14 08:09:56;;;;;;;4.90;4.50;;;28.70;81.50;;;;;;5059206;28;20165;-66
2022/08/14 08:12:24;;;;;;;5.45;4.75;;;29.10;79.40;;;;;;5054655;28;20040;-68
2022/08/14 08:14:50;;;;;;;6.93;5.03;;;29.20;77.60;;;;;;5062734;28;20041;-67
2022/08/14 08:17:19;;;;;;;5.55;4.85;;;29.00;76.10;;;;;;5048805;28;20041;-68
2022/08/14 08:19:47;;;;;;;7.28;4.45;;;29.20;75.90;;;;;;5045240;28;20454;-68
2022/08/14 08:22:13;;;;;;;6.90;4.55;;;29.60;74.60;;;;;;5064905;28;20111;-68
2022/08/14 08:24:38;;;;;;;5.07;4.50;;;29.90;74.10;;;;;;5042940;28;20044;-67
2022/08/14 08:27:21;;;;;;;6.38;4.30;;;30.20;72.40;;;;;;5044909;28;20044;-66
2022/08/14 08:29:46;;;;;;;4.75;4.35;;;30.40;69.10;;;;;;5045864;28;20076;-68
2022/08/14 08:32:12;;;;;;;6.18;4.50;;;30.50;69.80;;;;;;5050440;28;20040;-67
2022/08/14 08:34:47;;;;;;;5.00;4.50;;;30.70;68.40;;;;;;5039525;28;20041;-66
2022/08/14 08:37:13;;;;;;;4.55;4.15;;;30.80;66.60;;;;;;5044757;28;20119;-68
2022/08/14 08:39:48;;;;;;;4.53;3.83;;;31.10;67.00;;;;;;5062970;28;20032;-69
2022/08/14 08:42:24;;;;;;;7.47;4.13;;;31.20;65.50;;;;;;5063958;28;20044;-68
2022/08/14 08:44:56;;;;;;;4.00;3.28;;;31.50;65.30;;;;;;5056986;28;20048;-67
2022/08/14 08:47:22;;;;;;;4.32;3.92;;;31.70;62.50;;;;;;5045046;28;20508;-68
2022/08/14 08:49:47;;;;;;;4.25;3.75;;;31.70;62.70;;;;;;5050169;28;20040;-67
2022/08/14 08:52:13;;;;;;;4.15;3.35;;;31.80;62.40;;;;;;5043266;28;20060;-67
2022/08/14 08:54:39;;;;;;;5.47;4.55;;;31.70;61.40;;;;;;5050306;28;20067;-68
2022/08/14 08:57:11;;;;;;;5.40;4.32;;;31.80;60.80;;;;;;5058231;28;20052;-67
2022/08/14 08:59:37;;;;;;;4.43;3.67;;;32.00;60.60;;;;;;5052442;28;20036;-66
2022/08/14 09:02:05;;;;;;;4.38;3.13;;;31.90;60.40;;;;;;5040934;28;20048;-66
2022/08/14 09:04:43;;;;;;;3.70;3.13;;;32.10;61.20;;;;;;5058429;28;20456;-67
2022/08/14 09:07:09;;;;;;;3.83;3.28;;;32.50;59.90;;;;;;5062144;28;20385;-69
2022/08/14 09:09:57;;;;;;;4.68;3.15;;;32.80;58.90;;;;;;5042855;28;20044;-68
2022/08/14 09:12:22;;;;;;;3.90;3.60;;;33.00;58.50;;;;;;5045105;28;20071;-68
2022/08/14 09:14:50;;;;;;;4.85;3.10;;;33.20;58.00;;;;;;5052655;28;20050;-68
2022/08/14 09:17:15;;;;;;;3.95;2.70;;;33.40;57.00;;;;;;5042849;28;20507;-68
2022/08/14 09:19:41;;;;;;;3.15;2.75;;;33.50;55.00;;;;;;5059743;28;20043;-68
2022/08/14 09:22:07;;;;;;;3.70;3.33;;;33.30;55.40;;;;;;5049667;28;20219;-68
2022/08/14 09:24:33;;;;;;;3.00;2.80;;;33.30;54.90;;;;;;5064164;28;20372;-67
2022/08/14 09:26:58;;;;;;;3.30;2.40;;;33.30;55.30;;;;;;5059211;28;20528;-68
2022/08/14 09:29:24;;;;;;;3.80;3.03;;;33.30;54.90;;;;;;5059039;28;20033;-68
2022/08/14 09:31:56;;;;;;;2.90;2.63;;;33.10;54.30;;;;;;5042818;28;20051;-67
2022/08/14 09:34:40;;;;;;;3.50;2.67;;;32.90;53.60;;;;;;5044282;28;20131;-67
2022/08/14 09:37:33;;;;;;;3.20;2.90;;;32.90;54.90;;;;;;5061296;28;20047;-66
2022/08/14 09:40:36;;;;;;;4.07;3.22;;;33.20;54.40;;;;;;5069222;28;20106;-68
2022/08/14 09:43:40;;;;;;;3.30;3.00;;;33.30;54.30;;;;;;5066675;28;20049;-69
2022/08/14 09:46:07;;;;;;;4.15;3.25;;;33.50;53.10;;;;;;4970954;28;20122;-67
2022/08/14 09:48:36;;;;;;;3.78;2.67;;;33.50;54.30;;;;;;5048020;28;20091;-67
2022/08/14 09:51:04;;;;;;;3.85;3.05;;;33.60;54.00;;;;;;5069504;28;20036;-67
2022/08/14 09:53:40;;;;;;;4.80;3.03;;;33.50;53.00;;;;;;5060109;28;20506;-68
2022/08/14 09:56:07;;;;;;;3.00;2.72;;;33.50;53.60;;;;;;5064374;28;20071;-67
2022/08/14 09:58:46;;;;;;;3.28;2.80;;;33.50;52.60;;;;;;5062131;28;20044;-67
2022/08/14 10:01:14;;;;;;;3.28;2.83;;;33.60;52.20;;;;;;5057657;28;20043;-68
2022/08/14 10:03:52;;;;;;;3.60;2.72;;;33.50;51.80;;;;;;5044911;28;20045;-68
2022/08/14 10:06:20;;;;;;;6.20;2.80;;;33.50;50.90;;;;;;5038976;28;20037;-70
2022/08/14 10:08:50;;;;;;;4.63;2.65;;;33.20;51.50;;;;;;5057082;28;20484;-69
2022/08/14 10:11:24;;;;;;;2.88;2.67;;;33.00;51.80;;;;;;5070864;28;20047;-68
2022/08/14 10:13:53;;;;;;;2.83;2.58;;;33.00;52.00;;;;;;5026710;28;20103;-68
2022/08/14 10:16:28;;;;;;;4.30;3.10;;;33.10;53.30;;;;;;5044261;28;20032;-68
2022/08/14 10:19:14;;;;;;;2.92;2.53;;;33.30;51.40;;;;;;5062093;28;20051;-66
2022/08/14 10:21:43;;;;;;;2.90;2.63;;;33.40;51.10;;;;;;5046597;28;20037;-70
2022/08/14 10:24:10;;;;;;;2.75;2.55;;;33.30;51.20;;;;;;5062756;28;20041;-67
2022/08/14 10:26:36;;;;;;;3.55;2.42;;;33.10;51.70;;;;;;5060965;28;20526;-68
2022/08/14 10:29:10;;;;;;;3.30;2.58;;;33.00;52.20;;;;;;5054349;28;20277;-68
2022/08/14 10:31:36;;;;;;;2.97;2.45;;;33.10;51.80;;;;;;5058240;28;20032;-71
2022/08/14 10:34:07;;;;;;;2.83;2.63;;;32.90;52.00;;;;;;5028139;28;20060;-68
2022/08/14 10:36:42;;;;;;;3.45;3.15;;;32.90;51.20;;;;;;5060649;28;20094;-68
2022/08/14 10:39:17;;;;;;;3.30;3.00;;;32.80;51.90;;;;;;5058880;28;20037;-69
2022/08/14 10:41:44;;;;;;;3.55;2.60;;;32.70;52.50;;;;;;5047259;28;20036;-67
2022/08/14 10:44:21;;;;;;;2.70;2.50;;;32.80;52.50;;;;;;5033935;28;20120;-68
2022/08/14 10:46:53;;;;;;;3.03;2.67;;;33.00;51.40;;;;;;5046775;28;20033;-68
2022/08/14 10:49:21;;;;;;;3.27;2.97;;;33.10;50.70;;;;;;5063359;28;20244;-67
2022/08/14 10:52:05;;;;;;;3.17;2.80;;;33.10;50.90;;;;;;5046110;28;20036;-68
2022/08/14 10:54:51;;;;;;;3.28;2.95;;;33.30;50.30;;;;;;5036329;28;20049;-68
2022/08/14 10:57:21;;;;;;;4.70;3.20;;;33.30;50.80;;;;;;5056141;28;20132;-69
2022/08/14 10:59:54;;;;;;;3.35;2.67;;;33.40;51.00;;;;;;5064098;28;20038;-68
2022/08/14 11:02:24;;;;;;;3.85;2.78;;;33.60;51.20;;;;;;5064109;28;20080;-69
2022/08/14 11:05:17;;;;;;;3.72;2.70;;;33.80;50.00;;;;;;5047964;28;20094;-69
2022/08/14 11:07:55;;;;;;;3.15;2.30;;;34.00;49.80;;;;;;5043509;28;20060;-68
2022/08/14 11:10:24;;;;;;;2.35;2.15;;;34.10;47.90;;;;;;5043807;28;20055;-68
2022/08/14 11:12:55;;;;;;;2.85;2.38;;;34.00;47.40;;;;;;5027177;28;20051;-69
2022/08/14 11:15:30;;;;;;;3.45;2.65;;;34.00;47.60;;;;;;5038736;28;20040;-69
2022/08/14 11:17:56;;;;;;;4.70;2.92;;;34.00;47.90;;;;;;5043926;28;20091;-67
2022/08/14 11:20:26;;;;;;;3.50;3.22;;;33.90;48.90;;;;;;5059244;28;20076;-67
2022/08/14 11:22:56;;;;;;;4.18;2.92;;;34.00;49.10;;;;;;5054954;28;20119;-68
2022/08/14 11:25:24;;;;;;;3.20;2.90;;;33.90;47.70;;;;;;5056698;28;20044;-67
2022/08/14 11:27:52;;;;;;;2.92;2.72;;;33.70;48.60;;;;;;5041016;28;20054;-68
2022/08/14 11:30:28;;;;;;;3.42;3.13;;;33.50;48.60;;;;;;5024997;28;20048;-72
2022/08/14 11:32:56;;;;;;;4.03;2.90;;;33.50;48.70;;;;;;5047352;28;20044;-69
2022/08/14 11:35:25;;;;;;;3.33;3.03;;;33.60;48.80;;;;;;5042028;28;20377;-66
2022/08/14 11:37:58;;;;;;;4.15;3.00;;;33.50;48.20;;;;;;5067026;28;20098;-68
2022/08/14 11:40:29;;;;;;;4.07;2.83;;;33.20;49.70;;;;;;5064998;28;20040;-68
2022/08/14 11:42:56;;;;;;;3.85;3.05;;;33.30;48.70;;;;;;5043043;28;20246;-67
2022/08/14 11:45:33;;;;;;;3.30;3.00;;;33.50;49.00;;;;;;5032710;28;20045;-68
2022/08/14 11:48:00;;;;;;;2.80;2.60;;;33.90;48.00;;;;;;5060711;28;20086;-68
2022/08/14 11:50:32;;;;;;;3.83;3.53;;;34.20;48.00;;;;;;5054793;28;20036;-67
2022/08/14 11:53:01;;;;;;;3.58;2.70;;;34.30;46.40;;;;;;5065500;28;20243;-69
2022/08/14 11:55:34;;;;;;;2.85;2.55;;;34.30;47.10;;;;;;5025815;28;20049;-68
2022/08/14 11:58:02;;;;;;;3.22;2.80;;;34.50;47.30;;;;;;5063275;28;20098;-67
2022/08/14 12:00:29;;;;;;;2.58;2.40;;;34.70;46.50;;;;;;5060455;28;20131;-68
2022/08/14 12:02:57;;;;;;;2.72;2.53;;;34.80;46.40;;;;;;5028434;28;20060;-69
2022/08/14 12:05:30;;;;;;;4.00;2.60;;;34.80;46.80;;;;;;5035023;28;20041;-69
2022/08/14 12:07:57;;;;;;;2.92;2.58;;;35.00;46.00;;;;;;5027972;28;20136;-69
2022/08/14 12:10:23;;;;;;;2.63;2.42;;;35.30;46.40;;;;;;5051170;28;20041;-67
2022/08/14 12:12:54;;;;;;;2.80;2.55;;;35.50;45.00;;;;;;5058390;28;20036;-70
2022/08/14 12:15:31;;;;;;;3.17;2.60;;;35.50;45.30;;;;;;5057601;28;20037;-68
2022/08/14 12:17:58;;;;;;;2.83;2.63;;;35.30;44.50;;;;;;5042425;28;20056;-68
2022/08/14 12:20:32;;;;;;;3.33;2.85;;;34.90;45.70;;;;;;5060085;28;20049;-68
2022/08/14 12:22:59;;;;;;;2.70;2.50;;;34.70;46.20;;;;;;5044303;28;20420;-68
2022/08/14 12:25:26;;;;;;;3.95;2.80;;;34.80;46.40;;;;;;5059401;28;20040;-69
2022/08/14 12:27:54;;;;;;;2.90;2.70;;;35.10;46.50;;;;;;5042261;28;20531;-69
2022/08/14 12:30:29;;;;;;;3.10;2.80;;;35.50;45.70;;;;;;5050731;28;20045;-69
2022/08/14 12:32:55;;;;;;;3.22;2.90;;;35.80;45.90;;;;;;5058906;28;20500;-69
2022/08/14 12:35:22;;;;;;;4.38;3.97;;;36.10;45.70;;;;;;5058125;28;20056;-70
2022/08/14 12:37:50;;;;;;;2.47;2.28;;;36.40;44.60;;;;;;5059531;28;20044;-68
2022/08/14 12:40:18;;;;;;;5.43;2.50;;;36.40;43.70;;;;;;5034400;28;20138;-67
2022/08/14 12:42:44;;;;;;;3.65;2.60;;;36.40;42.60;;;;;;5063456;28;20060;-67
2022/08/14 12:45:11;;;;;;;3.35;2.70;;;36.20;44.20;;;;;;5034970;28;20155;-70
2022/08/14 12:47:39;;;;;;;3.30;2.90;;;36.30;44.00;;;;;;5042895;28;20052;-68
2022/08/14 12:50:06;;;;;;;3.25;2.95;;;36.20;43.30;;;;;;5032956;28;20056;-71
2022/08/14 12:52:35;;;;;;;2.85;2.65;;;35.70;43.60;;;;;;5040349;28;20116;-68
2022/08/14 12:55:04;;;;;;;3.00;2.80;;;35.20;44.40;;;;;;5048892;28;20150;-69
2022/08/14 12:57:35;;;;;;;3.28;2.70;;;35.00;44.50;;;;;;5039162;28;20088;-69
2022/08/14 13:00:16;;;;;;;2.53;2.33;;;34.90;44.60;;;;;;5068110;28;20050;-67
2022/08/14 13:02:43;;;;;;;3.85;2.40;;;34.60;44.70;;;;;;5053062;28;20045;-70
2022/08/14 13:05:11;;;;;;;4.35;2.72;;;34.20;46.00;;;;;;5046948;28;20373;-67
2022/08/14 13:07:38;;;;;;;2.60;2.40;;;33.90;45.20;;;;;;5047431;28;20033;-69
2022/08/14 13:10:06;;;;;;;3.13;2.55;;;33.60;46.20;;;;;;5064757;28;20087;-68